Bretagne — FNBR — position and weather

sailwx.info

Track history (hours):
 
Tides and Currents Weather Stations Pressure Air Temp Water Temp Dewpoint Dewpoint Depression Visibility Wind Speed Wind Dir Waves Ship Positions

Bretagne

Operator: Brittany Ferries

Last reported at 2017-Feb-25 06:20 UTC. Time now 2017-Feb-25 13:47 UTC.
Position N 48°45' W 002°09'.

Length 151 m; beam 27 m.

Type: Ship. MMSI: 227286000.

Date/timePositionNaut miles runAvg speedWind from/ knotsBaromVisibWave heightAir tempDewpointWater temp
2017-Feb-25 06:20N 48°45' W 002°09'10513.4
2017-Feb-24 22:31N 50°25' W 001°21'1515.9
2017-Feb-24 21:34N 50°38' W 001°07'1111.1
2017-Feb-24 20:34N 50°49' W 001°07'0 0.5
2017-Feb-24 19:33N 50°49' W 001°06'0 0.0
2017-Feb-24 18:33N 50°49' W 001°06'0 0.0
2017-Feb-24 17:33N 50°49' W 001°06'0 0.0
2017-Feb-24 16:33N 50°49' W 001°06'0 0.0
2017-Feb-24 15:33N 50°49' W 001°06'0 0.0
2017-Feb-24 14:33N 50°49' W 001°06'0 0.0
2017-Feb-24 13:33N 50°49' W 001°06'0 0.0
2017-Feb-24 12:33N 50°49' W 001°06'0 0.0
2017-Feb-24 11:33N 50°49' W 001°06'0 0.0
2017-Feb-24 10:33N 50°49' W 001°06'0 0.0
2017-Feb-24 09:33N 50°49' W 001°06'0 0.0
2017-Feb-24 08:33N 50°49' W 001°06'0 0.1
2017-Feb-24 07:33N 50°49' W 001°06'1010.0
2017-Feb-24 06:33N 50°39' W 001°05'115 4.6
2017-Feb-23 05:33N 48°55' W 002°21'3115.4
2017-Feb-23 03:30N 49°26' W 002°15'2115.7
2017-Feb-23 02:11N 49°45' W 002°03'1016.5
2017-Feb-23 01:33N 49°53' W 001°54'1717.2
2017-Feb-23 00:33N 50°08' W 001°41'1717.3
2017-Feb-22 23:33N 50°22' W 001°24'1615.9
2017-Feb-22 22:33N 50°35' W 001°10'1211.9
2017-Feb-22 21:33N 50°47' W 001°06'2 1.8
2017-Feb-22 20:31N 50°49' W 001°06'0 0.0
2017-Feb-22 19:31N 50°49' W 001°06'0 0.0
2017-Feb-22 18:31N 50°49' W 001°06'0 0.0
2017-Feb-22 17:31N 50°49' W 001°06'0 0.0
2017-Feb-22 16:31N 50°49' W 001°06'0 0.0
2017-Feb-22 15:31N 50°49' W 001°06'0 0.0
2017-Feb-22 14:31N 50°49' W 001°06'0 0.0
2017-Feb-22 13:31N 50°49' W 001°06'0 0.0
2017-Feb-22 12:31N 50°49' W 001°06'0 0.0
2017-Feb-22 11:31N 50°49' W 001°06'0 0.0
2017-Feb-22 10:31N 50°49' W 001°06'0 0.0
2017-Feb-22 09:31N 50°49' W 001°06'5 5.2
2017-Feb-22 08:33N 50°44' W 001°03'5 4.8
2017-Feb-22 07:34N 50°39' W 001°01'6 5.6
2017-Feb-22 06:33N 50°35' W 001°06'2014.7
2017-Feb-22 05:10N 50°19' W 001°26'812.5
2017-Feb-22 04:33N 50°13' W 001°33'1212.5
2017-Feb-22 03:33N 50°02' W 001°44'1212.5
2017-Feb-22 02:33N 49°52' W 001°55'6111.5
2017-Feb-21 21:16N 48°54' W 002°23'63 3.2
2017-Feb-21 01:33N 49°54' W 001°55'1716.7
2017-Feb-21 00:33N 50°07' W 001°39'2017.2
2017-Feb-20 23:25N 50°24' W 001°21'1618.2
2017-Feb-20 22:34N 50°36' W 001°07'1211.8
2017-Feb-20 21:33N 50°48' W 001°07'1 0.8
2017-Feb-20 20:31N 50°49' W 001°06'0 0.0
2017-Feb-20 19:30N 50°49' W 001°06'0 0.0
2017-Feb-20 18:30N 50°49' W 001°06'0 0.0
2017-Feb-20 17:30N 50°49' W 001°06'0 0.0
2017-Feb-20 16:31N 50°49' W 001°06'0 0.0
2017-Feb-20 15:32N 50°49' W 001°06'0 0.0
2017-Feb-20 14:31N 50°49' W 001°06'0 0.0
2017-Feb-20 13:31N 50°49' W 001°06'0 0.0
2017-Feb-20 12:31N 50°49' W 001°06'0 0.0
2017-Feb-20 11:32N 50°49' W 001°06'0 0.0
2017-Feb-20 10:32N 50°49' W 001°06'0 0.0
2017-Feb-20 09:31N 50°49' W 001°06'0 0.0
2017-Feb-20 08:31N 50°49' W 001°06'0 0.4
2017-Feb-20 07:33N 50°49' W 001°06'9 9.4
2017-Feb-20 06:34N 50°39' W 001°05'1413.8
2017-Feb-20 05:32N 50°28' W 001°18'1211.9
2017-Feb-20 04:33N 50°18' W 001°27'1212.0
2017-Feb-20 03:33N 50°08' W 001°38'1211.9
2017-Feb-20 02:33N 49°58' W 001°48'1312.5
2017-Feb-20 01:33N 49°47' W 001°59'1513.3
2017-Feb-20 00:27N 49°34' W 002°08'25 1.2
2017-Feb-19 04:26N 49°11' W 002°22'1512.2
2017-Feb-19 03:11N 49°26' W 002°15'711.6
2017-Feb-19 02:33N 49°33' W 002°12'1512.1
2017-Feb-19 01:20N 49°46' W 002°01'1113.9
2017-Feb-19 00:34N 49°54' W 001°50'1515.1
2017-Feb-18 23:33N 50°07' W 001°38'1615.7
2017-Feb-18 22:33N 50°20' W 001°25'1616.1
2017-Feb-18 21:33N 50°34' W 001°11'1312.9
2017-Feb-18 20:34N 50°46' W 001°05'3 2.6
2017-Feb-18 19:31N 50°49' W 001°06'0 0.0
2017-Feb-18 18:31N 50°49' W 001°06'2 2.1
2017-Feb-18 17:33N 50°47' W 001°06'1212.4
2017-Feb-18 16:33N 50°35' W 001°09'1515.2
2017-Feb-18 15:33N 50°22' W 001°23'1514.8
2017-Feb-18 14:33N 50°10' W 001°36'1919.1
2017-Feb-18 13:34N 49°53' W 001°50'2221.0
2017-Feb-18 12:31N 49°32' W 001°59'3819.5
2017-Feb-18 10:33N 48°54' W 001°59'12 3.1
2017-Feb-18 06:32N 48°42' W 002°06'1917.6
2017-Feb-18 05:28N 48°58' W 002°21'1213.1
2017-Feb-18 04:32N 49°11' W 002°22'1513.1
2017-Feb-18 03:22N 49°25' W 002°17'1311.5
2017-Feb-18 02:14N 49°37' W 002°08'1014.6
2017-Feb-18 01:31N 49°47' W 002°01'1414.1
2017-Feb-18 00:33N 49°58' W 001°49'1514.8
2017-Feb-17 23:34N 50°10' W 001°37'1717.2
2017-Feb-17 22:33N 50°24' W 001°21'1717.1
2017-Feb-17 21:34N 50°38' W 001°06'1010.5
2017-Feb-17 20:33N 50°49' W 001°06'0 0.4
2017-Feb-17 19:30N 50°49' W 001°06'0 0.0
2017-Feb-17 18:30N 50°49' W 001°06'0 0.0
2017-Feb-17 17:30N 50°49' W 001°06'0 0.0
2017-Feb-17 16:30N 50°49' W 001°06'0 0.0
2017-Feb-17 15:30N 50°49' W 001°06'0 0.0
2017-Feb-17 14:30N 50°49' W 001°06'0 0.0
2017-Feb-17 13:30N 50°49' W 001°06'0 0.0
2017-Feb-17 12:30N 50°49' W 001°06'0 0.0
2017-Feb-17 11:30N 50°49' W 001°06'0 0.0
2017-Feb-17 10:30N 50°49' W 001°06'0 0.0
2017-Feb-17 09:30N 50°49' W 001°06'0 0.0
2017-Feb-17 08:30N 50°49' W 001°06'0 0.2
2017-Feb-17 07:33N 50°49' W 001°06'10 9.9
2017-Feb-17 06:34N 50°39' W 001°05'1212.2
2017-Feb-17 05:34N 50°30' W 001°18'1110.7
2017-Feb-17 04:33N 50°21' W 001°27'1110.8
2017-Feb-17 03:33N 50°11' W 001°34'1111.1
2017-Feb-17 02:34N 50°02' W 001°44'1312.5
2017-Feb-17 01:33N 49°51' W 001°54'1615.3
2017-Feb-17 00:31N 49°37' W 002°06'55 2.1
2017-Feb-15 22:32N 50°24' W 001°21'1616.3
2017-Feb-15 21:33N 50°37' W 001°07'1111.0
2017-Feb-15 20:33N 50°48' W 001°07'1 0.9
2017-Feb-15 19:31N 50°49' W 001°06'0 0.0
2017-Feb-15 18:31N 50°49' W 001°06'0 0.0
2017-Feb-15 17:31N 50°49' W 001°06'0 0.0
2017-Feb-15 16:31N 50°49' W 001°06'0 0.0
2017-Feb-15 15:31N 50°49' W 001°06'0 0.0
2017-Feb-15 14:31N 50°49' W 001°06'0 0.0
2017-Feb-15 13:32N 50°49' W 001°06'0 0.0
2017-Feb-15 12:32N 50°49' W 001°06'0 0.0
2017-Feb-15 11:32N 50°49' W 001°06'0 0.0
2017-Feb-15 10:32N 50°49' W 001°06'0 0.0
2017-Feb-15 09:32N 50°49' W 001°06'0 0.0
2017-Feb-15 08:32N 50°49' W 001°06'0 0.3
2017-Feb-15 07:34N 50°49' W 001°06'9 8.9
2017-Feb-15 06:33N 50°40' W 001°04'  
Track history (hours):
 
Tides and Currents Weather Stations Pressure Air Temp Water Temp Dewpoint Dewpoint Depression Visibility Wind Speed Wind Dir Waves Ship Positions

Bretagne

Operator: Brittany Ferries

Last reported at 2017-Feb-25 06:20 UTC. Time now 2017-Feb-25 13:47 UTC.
Position N 48°45' W 002°09'.

Length 151 m; beam 27 m.

Type: Ship. MMSI: 227286000.

Date/timePositionNaut miles runAvg speedWind from/ knotsBaromVisibWave heightAir tempDewpointWater temp
2017-Feb-25 06:20N 48°45' W 002°09'10513.4
2017-Feb-24 22:31N 50°25' W 001°21'1515.9
2017-Feb-24 21:34N 50°38' W 001°07'1111.1
2017-Feb-24 20:34N 50°49' W 001°07'0 0.5
2017-Feb-24 19:33N 50°49' W 001°06'0 0.0
2017-Feb-24 18:33N 50°49' W 001°06'0 0.0
2017-Feb-24 17:33N 50°49' W 001°06'0 0.0
2017-Feb-24 16:33N 50°49' W 001°06'0 0.0
2017-Feb-24 15:33N 50°49' W 001°06'0 0.0
2017-Feb-24 14:33N 50°49' W 001°06'0 0.0
2017-Feb-24 13:33N 50°49' W 001°06'0 0.0
2017-Feb-24 12:33N 50°49' W 001°06'0 0.0
2017-Feb-24 11:33N 50°49' W 001°06'0 0.0
2017-Feb-24 10:33N 50°49' W 001°06'0 0.0
2017-Feb-24 09:33N 50°49' W 001°06'0 0.0
2017-Feb-24 08:33N 50°49' W 001°06'0 0.1
2017-Feb-24 07:33N 50°49' W 001°06'1010.0
2017-Feb-24 06:33N 50°39' W 001°05'115 4.6
2017-Feb-23 05:33N 48°55' W 002°21'3115.4
2017-Feb-23 03:30N 49°26' W 002°15'2115.7
2017-Feb-23 02:11N 49°45' W 002°03'1016.5
2017-Feb-23 01:33N 49°53' W 001°54'1717.2
2017-Feb-23 00:33N 50°08' W 001°41'1717.3
2017-Feb-22 23:33N 50°22' W 001°24'1615.9
2017-Feb-22 22:33N 50°35' W 001°10'1211.9
2017-Feb-22 21:33N 50°47' W 001°06'2 1.8
2017-Feb-22 20:31N 50°49' W 001°06'0 0.0
2017-Feb-22 19:31N 50°49' W 001°06'0 0.0
2017-Feb-22 18:31N 50°49' W 001°06'0 0.0
2017-Feb-22 17:31N 50°49' W 001°06'0 0.0
2017-Feb-22 16:31N 50°49' W 001°06'0 0.0
2017-Feb-22 15:31N 50°49' W 001°06'0 0.0
2017-Feb-22 14:31N 50°49' W 001°06'0 0.0
2017-Feb-22 13:31N 50°49' W 001°06'0 0.0
2017-Feb-22 12:31N 50°49' W 001°06'0 0.0
2017-Feb-22 11:31N 50°49' W 001°06'0 0.0
2017-Feb-22 10:31N 50°49' W 001°06'0 0.0
2017-Feb-22 09:31N 50°49' W 001°06'5 5.2
2017-Feb-22 08:33N 50°44' W 001°03'5 4.8
2017-Feb-22 07:34N 50°39' W 001°01'6 5.6
2017-Feb-22 06:33N 50°35' W 001°06'2014.7
2017-Feb-22 05:10N 50°19' W 001°26'812.5
2017-Feb-22 04:33N 50°13' W 001°33'1212.5
2017-Feb-22 03:33N 50°02' W 001°44'1212.5
2017-Feb-22 02:33N 49°52' W 001°55'6111.5
2017-Feb-21 21:16N 48°54' W 002°23'63 3.2
2017-Feb-21 01:33N 49°54' W 001°55'1716.7
2017-Feb-21 00:33N 50°07' W 001°39'2017.2
2017-Feb-20 23:25N 50°24' W 001°21'1618.2
2017-Feb-20 22:34N 50°36' W 001°07'1211.8
2017-Feb-20 21:33N 50°48' W 001°07'1 0.8
2017-Feb-20 20:31N 50°49' W 001°06'0 0.0
2017-Feb-20 19:30N 50°49' W 001°06'0 0.0
2017-Feb-20 18:30N 50°49' W 001°06'0 0.0
2017-Feb-20 17:30N 50°49' W 001°06'0 0.0
2017-Feb-20 16:31N 50°49' W 001°06'0 0.0
2017-Feb-20 15:32N 50°49' W 001°06'0 0.0
2017-Feb-20 14:31N 50°49' W 001°06'0 0.0
2017-Feb-20 13:31N 50°49' W 001°06'0 0.0
2017-Feb-20 12:31N 50°49' W 001°06'0 0.0
2017-Feb-20 11:32N 50°49' W 001°06'0 0.0
2017-Feb-20 10:32N 50°49' W 001°06'0 0.0
2017-Feb-20 09:31N 50°49' W 001°06'0 0.0
2017-Feb-20 08:31N 50°49' W 001°06'0 0.4
2017-Feb-20 07:33N 50°49' W 001°06'9 9.4
2017-Feb-20 06:34N 50°39' W 001°05'1413.8
2017-Feb-20 05:32N 50°28' W 001°18'1211.9
2017-Feb-20 04:33N 50°18' W 001°27'1212.0
2017-Feb-20 03:33N 50°08' W 001°38'1211.9
2017-Feb-20 02:33N 49°58' W 001°48'1312.5
2017-Feb-20 01:33N 49°47' W 001°59'1513.3
2017-Feb-20 00:27N 49°34' W 002°08'25 1.2
2017-Feb-19 04:26N 49°11' W 002°22'1512.2
2017-Feb-19 03:11N 49°26' W 002°15'711.6
2017-Feb-19 02:33N 49°33' W 002°12'1512.1
2017-Feb-19 01:20N 49°46' W 002°01'1113.9
2017-Feb-19 00:34N 49°54' W 001°50'1515.1
2017-Feb-18 23:33N 50°07' W 001°38'1615.7
2017-Feb-18 22:33N 50°20' W 001°25'1616.1
2017-Feb-18 21:33N 50°34' W 001°11'1312.9
2017-Feb-18 20:34N 50°46' W 001°05'3 2.6
2017-Feb-18 19:31N 50°49' W 001°06'0 0.0
2017-Feb-18 18:31N 50°49' W 001°06'2 2.1
2017-Feb-18 17:33N 50°47' W 001°06'1212.4
2017-Feb-18 16:33N 50°35' W 001°09'1515.2
2017-Feb-18 15:33N 50°22' W 001°23'1514.8
2017-Feb-18 14:33N 50°10' W 001°36'1919.1
2017-Feb-18 13:34N 49°53' W 001°50'2221.0
2017-Feb-18 12:31N 49°32' W 001°59'3819.5
2017-Feb-18 10:33N 48°54' W 001°59'12 3.1
2017-Feb-18 06:32N 48°42' W 002°06'1917.6
2017-Feb-18 05:28N 48°58' W 002°21'1213.1
2017-Feb-18 04:32N 49°11' W 002°22'1513.1
2017-Feb-18 03:22N 49°25' W 002°17'1311.5
2017-Feb-18 02:14N 49°37' W 002°08'1014.6
2017-Feb-18 01:31N 49°47' W 002°01'1414.1
2017-Feb-18 00:33N 49°58' W 001°49'1514.8
2017-Feb-17 23:34N 50°10' W 001°37'1717.2
2017-Feb-17 22:33N 50°24' W 001°21'1717.1
2017-Feb-17 21:34N 50°38' W 001°06'1010.5
2017-Feb-17 20:33N 50°49' W 001°06'0 0.4
2017-Feb-17 19:30N 50°49' W 001°06'0 0.0
2017-Feb-17 18:30N 50°49' W 001°06'0 0.0
2017-Feb-17 17:30N 50°49' W 001°06'0 0.0
2017-Feb-17 16:30N 50°49' W 001°06'0 0.0
2017-Feb-17 15:30N 50°49' W 001°06'0 0.0
2017-Feb-17 14:30N 50°49' W 001°06'0 0.0
2017-Feb-17 13:30N 50°49' W 001°06'0 0.0
2017-Feb-17 12:30N 50°49' W 001°06'0 0.0
2017-Feb-17 11:30N 50°49' W 001°06'0 0.0
2017-Feb-17 10:30N 50°49' W 001°06'0 0.0
2017-Feb-17 09:30N 50°49' W 001°06'0 0.0
2017-Feb-17 08:30N 50°49' W 001°06'0 0.2
2017-Feb-17 07:33N 50°49' W 001°06'10 9.9
2017-Feb-17 06:34N 50°39' W 001°05'1212.2
2017-Feb-17 05:34N 50°30' W 001°18'1110.7
2017-Feb-17 04:33N 50°21' W 001°27'1110.8
2017-Feb-17 03:33N 50°11' W 001°34'1111.1
2017-Feb-17 02:34N 50°02' W 001°44'1312.5
2017-Feb-17 01:33N 49°51' W 001°54'1615.3
2017-Feb-17 00:31N 49°37' W 002°06'55 2.1
2017-Feb-15 22:32N 50°24' W 001°21'1616.3
2017-Feb-15 21:33N 50°37' W 001°07'1111.0
2017-Feb-15 20:33N 50°48' W 001°07'1 0.9
2017-Feb-15 19:31N 50°49' W 001°06'0 0.0
2017-Feb-15 18:31N 50°49' W 001°06'0 0.0
2017-Feb-15 17:31N 50°49' W 001°06'0 0.0
2017-Feb-15 16:31N 50°49' W 001°06'0 0.0
2017-Feb-15 15:31N 50°49' W 001°06'0 0.0
2017-Feb-15 14:31N 50°49' W 001°06'0 0.0
2017-Feb-15 13:32N 50°49' W 001°06'0 0.0
2017-Feb-15 12:32N 50°49' W 001°06'0 0.0
2017-Feb-15 11:32N 50°49' W 001°06'0 0.0
2017-Feb-15 10:32N 50°49' W 001°06'0 0.0
2017-Feb-15 09:32N 50°49' W 001°06'0 0.0
2017-Feb-15 08:32N 50°49' W 001°06'0 0.3
2017-Feb-15 07:34N 50°49' W 001°06'9 8.9
2017-Feb-15 06:33N 50°40' W 001°04'  

Dump ship's entire track history